Time;durP1;ratioP1;P1;durP2;ratioP2;P2;SDS_P1;SDS_P2;PMS_P1;PMS_P2;Temp;Humidity;BMP_temperature;BMP_pressure;BME280_temperature;BME280_humidity;BME280_pressure;Samples;Min_cycle;Max_cycle;Signal;HPM_P1;HPM_P2
2023/08/11 00:00:29;;;;;;;8.00;5.40;;;14.40;1.00;;;;;;9970992;29;20221;-79
2023/08/11 00:05:52;;;;;;;12.30;6.38;;;14.30;99.90;;;;;;9978508;29;20205;-81
2023/08/11 00:11:14;;;;;;;10.52;5.70;;;14.30;99.90;;;;;;10000102;29;20264;-79
2023/08/11 00:16:34;;;;;;;12.73;6.45;;;14.30;1.00;;;;;;9971218;29;20414;-79
2023/08/11 00:21:56;;;;;;;13.77;6.30;;;14.30;1.00;;;;;;9969846;29;20217;-78
2023/08/11 00:27:19;;;;;;;9.05;5.65;;;14.10;35.60;;;;;;9970124;29;20230;-80
2023/08/11 00:32:41;;;;;;;11.02;5.72;;;14.10;99.90;;;;;;9969786;29;20210;-80
2023/08/11 00:38:04;;;;;;;12.70;6.47;;;14.00;1.00;;;;;;9969042;29;20238;-79
2023/08/11 00:43:25;;;;;;;10.90;6.03;;;14.10;99.90;;;;;;9954668;29;20221;-79
2023/08/11 00:48:51;;;;;;;11.07;5.32;;;14.10;1.00;;;;;;9970083;29;20231;-79
2023/08/11 00:54:14;;;;;;;10.23;5.60;;;14.10;99.90;;;;;;9968839;29;20585;-79
2023/08/11 00:59:36;;;;;;;8.30;4.80;;;14.10;99.90;;;;;;9955218;29;20218;-79
2023/08/11 01:04:57;;;;;;;8.95;5.18;;;14.10;29.00;;;;;;9934336;29;20291;-79
2023/08/11 01:10:39;;;;;;;8.60;5.10;;;14.10;99.90;;;;;;9968329;29;20528;-78
2023/08/11 01:16:01;;;;;;;11.55;5.03;;;14.10;1.00;;;;;;9962146;29;20523;-78
2023/08/11 01:21:25;;;;;;;8.77;4.43;;;14.00;99.90;;;;;;9967548;29;20255;-80
2023/08/11 01:26:47;;;;;;;9.23;5.18;;;13.90;1.00;;;;;;9967608;29;20281;-80
2023/08/11 01:32:09;;;;;;;9.15;4.50;;;13.90;1.00;;;;;;9967381;29;20610;-80
2023/08/11 01:37:31;;;;;;;6.68;4.15;;;13.90;99.90;;;;;;9966196;29;20240;-80
2023/08/11 01:42:56;;;;;;;6.50;4.10;;;13.90;34.50;;;;;;9968097;29;20221;-80
2023/08/11 01:48:19;;;;;;;7.95;4.00;;;14.00;1.00;;;;;;9953934;29;20434;-79
2023/08/11 01:53:41;;;;;;;7.50;4.25;;;13.90;99.90;;;;;;9965394;29;20459;-79
2023/08/11 01:59:10;;;;;;;9.57;5.05;;;13.90;99.90;;;;;;9966697;29;20207;-79
2023/08/11 02:04:32;;;;;;;8.30;4.30;;;13.80;1.00;;;;;;9966010;29;20487;-79
2023/08/11 02:09:54;;;;;;;9.02;6.00;;;13.90;1.00;;;;;;9963236;29;20411;-80
2023/08/11 02:15:15;;;;;;;11.43;5.90;;;13.90;1.00;;;;;;9967197;29;20203;-80
2023/08/11 02:20:36;;;;;;;9.52;5.90;;;13.90;1.00;;;;;;9965553;29;20225;-78
2023/08/11 02:26:49;;;;;;;11.75;6.43;;;14.00;1.00;;;;;;9952338;29;20487;-79
2023/08/11 02:32:29;;;;;;;16.45;7.45;;;13.90;64.70;;;;;;9965956;29;20215;-79
2023/08/11 02:37:50;;;;;;;11.23;6.65;;;13.90;99.90;;;;;;9976273;29;20490;-78
2023/08/11 02:43:12;;;;;;;11.27;6.75;;;13.90;1.00;;;;;;9965521;29;20252;-78
2023/08/11 02:48:38;;;;;;;13.02;6.78;;;13.90;1.00;;;;;;9952582;29;20278;-79
2023/08/11 02:54:00;;;;;;;10.90;7.38;;;13.90;52.50;;;;;;9965042;29;20203;-78
2023/08/11 02:59:21;;;;;;;12.40;7.43;;;13.90;1.00;;;;;;9964856;29;20230;-77
2023/08/11 03:04:43;;;;;;;14.38;7.90;;;13.90;1.00;;;;;;9927103;29;20206;-78
2023/08/11 03:10:06;;;;;;;12.02;6.47;;;13.90;1.00;;;;;;9946678;29;20240;-77
2023/08/11 03:15:29;;;;;;;9.23;5.60;;;13.80;99.90;;;;;;9977555;29;20194;-78
2023/08/11 03:20:52;;;;;;;9.63;5.93;;;13.80;99.90;;;;;;9964305;29;20209;-78
2023/08/11 03:26:16;;;;;;;12.35;6.63;;;13.70;1.00;;;;;;9963209;29;20208;-79
2023/08/11 03:31:37;;;;;;;12.32;6.82;;;13.60;1.00;;;;;;9958068;29;20572;-78
2023/08/11 03:36:59;;;;;;;10.82;6.38;;;13.70;1.00;;;;;;9958275;29;20247;-79
2023/08/11 03:42:22;;;;;;;12.90;6.70;;;13.60;31.20;;;;;;9957885;29;20218;-78
2023/08/11 03:47:46;;;;;;;11.10;6.68;;;13.60;1.00;;;;;;9957958;29;20212;-78
2023/08/11 03:53:13;;;;;;;10.02;6.18;;;13.50;1.00;;;;;;9970481;29;20198;-78
2023/08/11 03:58:36;;;;;;;13.68;6.65;;;13.40;99.90;;;;;;9960079;29;20209;-78
2023/08/11 04:03:58;;;;;;;9.02;5.63;;;13.40;1.00;;;;;;9956693;29;20439;-78
2023/08/11 04:09:19;;;;;;;9.50;5.47;;;13.40;1.00;;;;;;9998801;29;20226;-78
2023/08/11 04:14:40;;;;;;;11.25;5.88;;;13.40;52.60;;;;;;9969457;29;20461;-79
2023/08/11 04:20:11;;;;;;;7.63;5.50;;;13.50;1.00;;;;;;9970531;29;20205;-80
2023/08/11 04:25:34;;;;;;;12.93;6.25;;;13.60;1.00;;;;;;9969383;29;20235;-79
2023/08/11 04:30:56;;;;;;;8.18;5.70;;;13.70;1.00;;;;;;9956753;29;20316;-80
2023/08/11 04:36:17;;;;;;;10.20;5.90;;;13.90;1.00;;;;;;9970262;29;20253;-78
2023/08/11 04:41:38;;;;;;;7.32;4.93;;;14.00;99.90;;;;;;9954721;29;20366;-79
2023/08/11 04:47:00;;;;;;;7.35;5.00;;;14.20;1.00;;;;;;9956080;29;20280;-80
2023/08/11 04:52:22;;;;;;;7.78;4.88;;;14.30;1.00;;;;;;9968907;29;20225;-79
2023/08/11 04:57:44;;;;;;;6.20;4.45;;;14.40;18.90;;;;;;9944674;29;20215;-80
2023/08/11 05:03:05;;;;;;;8.05;3.88;;;14.60;99.90;;;;;;9968603;29;20452;-79
2023/08/11 05:08:26;;;;;;;6.70;3.88;;;14.70;99.90;;;;;;9995405;29;20249;-80
2023/08/11 05:13:47;;;;;;;6.75;4.28;;;14.90;1.00;;;;;;9966198;29;20235;-80
2023/08/11 05:19:09;;;;;;;7.32;4.72;;;14.90;99.90;;;;;;9968080;29;20230;-79
2023/08/11 05:24:30;;;;;;;6.15;4.10;;;15.00;99.90;;;;;;9968675;29;20199;-80
2023/08/11 05:29:51;;;;;;;11.43;4.80;;;15.20;22.40;;;;;;9967482;29;20420;-79
2023/08/11 05:35:12;;;;;;;12.63;4.47;;;15.30;1.00;;;;;;9954534;29;20267;-80
2023/08/11 05:40:33;;;;;;;8.18;4.43;;;15.40;99.90;;;;;;9968364;29;20203;-80
2023/08/11 05:45:55;;;;;;;8.45;5.05;;;15.60;94.50;;;;;;9965248;29;20302;-79
2023/08/11 05:51:16;;;;;;;6.18;4.00;;;15.90;1.00;;;;;;9953997;29;20255;-79
2023/08/11 05:56:37;;;;;;;5.18;2.35;;;16.10;99.90;;;;;;9966979;29;20204;-81
2023/08/11 06:01:58;;;;;;;7.63;2.83;;;16.30;99.90;;;;;;9979012;29;20251;-79
2023/08/11 06:07:20;;;;;;;7.90;3.10;;;16.40;99.90;;;;;;9985958;29;20260;-81
2023/08/11 06:12:42;;;;;;;5.10;2.40;;;16.60;99.90;;;;;;9969884;29;20465;-80
2023/08/11 06:18:03;;;;;;;5.70;2.63;;;16.80;99.90;;;;;;9953431;29;20206;-79
2023/08/11 06:23:25;;;;;;;5.20;2.05;;;17.10;99.90;;;;;;9965417;29;20570;-79
2023/08/11 06:28:48;;;;;;;4.68;2.15;;;17.30;6.40;;;;;;9963751;29;20254;-80
2023/08/11 06:34:09;;;;;;;6.93;2.10;;;17.20;1.00;;;;;;9978404;29;20222;-79
2023/08/11 06:39:30;;;;;;;5.60;2.45;;;17.20;1.00;;;;;;9965890;29;20282;-80
2023/08/11 06:44:51;;;;;;;3.75;1.65;;;17.10;1.00;;;;;;9977274;29;20419;-79
2023/08/11 06:50:13;;;;;;;4.88;1.80;;;17.00;1.00;;;;;;9964657;29;20559;-78
2023/08/11 06:55:34;;;;;;;4.72;2.08;;;17.10;1.00;;;;;;9964231;29;20216;-78
2023/08/11 07:00:56;;;;;;;6.25;1.58;;;17.70;1.00;;;;;;9976699;29;20230;-80
2023/08/11 07:06:17;;;;;;;3.47;1.55;;;18.40;1.00;;;;;;9952378;29;20245;-79
2023/08/11 07:11:38;;;;;;;6.28;2.05;;;18.60;1.00;;;;;;9976090;29;20247;-78
2023/08/11 07:17:00;;;;;;;6.20;1.90;;;18.40;1.00;;;;;;9963617;29;20212;-80
2023/08/11 07:22:21;;;;;;;4.97;1.90;;;18.10;1.00;;;;;;9964238;29;20215;-79
2023/08/11 07:27:42;;;;;;;5.22;1.83;;;17.90;1.00;;;;;;9964064;29;20217;-83
2023/08/11 07:33:04;;;;;;;3.97;1.92;;;18.20;1.00;;;;;;9974876;29;20401;-79
2023/08/11 07:38:25;;;;;;;5.32;2.22;;;19.70;1.00;;;;;;9946923;29;20251;-82
2023/08/11 07:43:47;;;;;;;8.10;2.47;;;21.40;1.00;;;;;;9932610;29;20212;-80
2023/08/11 07:49:08;;;;;;;4.20;1.80;;;22.50;1.00;;;;;;9943885;29;20308;-81
2023/08/11 07:54:29;;;;;;;3.80;1.75;;;23.30;1.00;;;;;;9969412;29;20261;-81
2023/08/11 07:59:51;;;;;;;3.33;1.13;;;24.10;1.00;;;;;;9957566;29;20815;-82
2023/08/11 08:05:13;;;;;;;21.85;14.98;;;24.20;1.00;;;;;;9959579;29;20265;-80
2023/08/11 08:10:34;;;;;;;6.80;1.98;;;24.70;1.00;;;;;;9958054;29;20297;-81
2023/08/11 08:15:56;;;;;;;8.50;3.63;;;25.10;99.90;;;;;;9962874;29;20219;-79
2023/08/11 08:21:17;;;;;;;3.22;1.70;;;25.70;99.90;;;;;;9976818;29;20223;-83
2023/08/11 08:26:38;;;;;;;10.18;2.80;;;26.20;99.90;;;;;;9966418;29;20224;-83
2023/08/11 08:31:59;;;;;;;5.70;1.48;;;26.20;99.90;;;;;;9966553;29;20228;-81
2023/08/11 08:37:21;;;;;;;3.38;1.38;;;26.60;99.90;;;;;;9985337;29;20244;-82
2023/08/11 08:42:44;;;;;;;5.47;2.20;;;26.20;99.90;;;;;;9964911;29;20257;-83
2023/08/11 08:48:09;;;;;;;4.00;1.45;;;25.80;99.90;;;;;;9964657;29;20396;-80
2023/08/11 08:53:30;;;;;;;3.72;1.35;;;26.00;99.90;;;;;;9926334;29;20209;-84
2023/08/11 08:58:52;;;;;;;5.03;1.77;;;24.80;99.90;;;;;;9925609;29;20425;-79
2023/08/11 09:04:14;;;;;;;2.60;1.48;;;25.40;99.90;;;;;;9961532;29;20303;-85
2023/08/11 09:09:35;;;;;;;4.90;2.30;;;26.50;99.90;;;;;;9980858;29;20493;-82
2023/08/11 09:14:58;;;;;;;3.85;1.77;;;26.80;99.90;;;;;;9960569;29;20255;-80
2023/08/11 09:20:19;;;;;;;13.70;2.40;;;27.60;99.90;;;;;;9943738;29;20408;-85
2023/08/11 09:25:41;;;;;;;8.90;1.92;;;27.60;99.90;;;;;;9947425;29;20273;-81
2023/08/11 09:31:03;;;;;;;10.23;1.70;;;27.40;99.90;;;;;;9962345;29;20412;-83
2023/08/11 09:36:24;;;;;;;6.53;1.30;;;26.30;99.90;;;;;;9995711;29;20244;-81
2023/08/11 09:41:47;;;;;;;2.63;1.27;;;25.40;99.90;;;;;;9957424;29;20324;-80
2023/08/11 09:47:11;;;;;;;4.57;1.23;;;24.50;99.90;;;;;;9951073;29;20291;-80
2023/08/11 09:52:37;;;;;;;6.03;1.40;;;24.30;99.90;;;;;;9924597;30;20244;-84
2023/08/11 09:58:01;;;;;;;7.55;2.17;;;24.50;99.90;;;;;;9966502;29;20208;-83
2023/08/11 10:03:26;;;;;;;3.30;1.42;;;24.50;99.90;;;;;;9971214;29;20212;-82
2023/08/11 10:08:50;;;;;;;8.10;1.50;;;25.40;99.90;;;;;;9993304;29;20536;-80
2023/08/11 10:14:15;;;;;;;4.57;1.40;;;25.30;99.90;;;;;;9955644;29;20422;-79
2023/08/11 10:19:37;;;;;;;14.43;4.97;;;25.10;99.90;;;;;;9960479;29;20503;-88
2023/08/11 10:25:00;;;;;;;3.38;1.60;;;24.00;99.90;;;;;;9924188;29;20213;-82
2023/08/11 10:30:23;;;;;;;3.40;1.52;;;23.80;99.90;;;;;;9937804;29;20558;-78
2023/08/11 10:35:48;;;;;;;3.42;1.63;;;23.30;99.90;;;;;;9958008;29;20274;-83
2023/08/11 10:41:10;;;;;;;3.95;1.27;;;23.30;99.90;;;;;;9957235;29;20446;-78
2023/08/11 10:46:32;;;;;;;6.03;1.70;;;24.50;99.90;;;;;;9954245;29;20204;-79
2023/08/11 10:51:53;;;;;;;2.90;1.50;;;25.50;99.90;;;;;;9954672;29;20234;-78
2023/08/11 10:57:16;;;;;;;10.10;1.92;;;25.00;99.90;;;;;;10001607;29;20794;-81
2023/08/11 11:02:39;;;;;;;7.30;1.50;;;24.30;99.90;;;;;;9976087;29;20208;-82
2023/08/11 11:08:01;;;;;;;5.97;1.67;;;24.30;99.90;;;;;;9933993;29;20244;-83
2023/08/11 11:13:22;;;;;;;3.47;1.45;;;25.50;99.90;;;;;;9972900;29;20236;-78
2023/08/11 11:18:47;;;;;;;3.67;1.42;;;26.20;99.90;;;;;;9961463;29;20200;-79
2023/08/11 11:24:09;;;;;;;5.93;1.50;;;25.40;99.90;;;;;;9955609;29;20218;-80
2023/08/11 11:29:31;;;;;;;4.05;1.75;;;24.40;99.90;;;;;;9962140;29;20312;-79
2023/08/11 11:34:54;;;;;;;10.90;4.30;;;24.00;99.90;;;;;;9969530;29;20311;-81
2023/08/11 11:40:16;;;;;;;7.13;1.70;;;23.90;99.90;;;;;;9960452;29;20560;-80
2023/08/11 11:45:37;;;;;;;7.68;1.50;;;25.30;99.90;;;;;;9978289;29;20214;-81
2023/08/11 11:50:58;;;;;;;4.38;1.60;;;25.80;99.90;;;;;;9956530;29;20550;-85
2023/08/11 11:56:20;;;;;;;2.83;1.70;;;25.30;99.90;;;;;;9985368;29;20515;-83
2023/08/11 12:01:42;;;;;;;5.10;1.50;;;24.60;99.90;;;;;;9981657;29;20253;-83
2023/08/11 12:07:05;;;;;;;4.80;1.60;;;24.10;99.90;;;;;;9980726;29;20199;-79
2023/08/11 12:12:27;;;;;;;4.13;2.20;;;23.60;99.90;;;;;;9963911;29;20289;-80
2023/08/11 12:17:49;;;;;;;2.55;1.48;;;23.40;99.90;;;;;;9977426;29;20522;-80
2023/08/11 12:23:10;;;;;;;2.80;1.40;;;23.10;99.90;;;;;;9983620;29;20219;-80
2023/08/11 12:28:32;;;;;;;2.88;1.30;;;22.90;99.90;;;;;;9977521;29;20203;-79
2023/08/11 12:33:53;;;;;;;5.45;1.60;;;22.70;99.90;;;;;;9980072;29;20230;-79
2023/08/11 12:39:15;;;;;;;12.38;1.98;;;22.70;99.90;;;;;;9976642;29;20318;-79
2023/08/11 12:44:39;;;;;;;5.90;1.48;;;22.60;99.90;;;;;;9962649;29;20265;-78
2023/08/11 12:50:00;;;;;;;3.70;1.30;;;22.60;99.90;;;;;;9981301;29;20239;-79
2023/08/11 12:55:22;;;;;;;3.90;1.80;;;22.70;99.90;;;;;;9978481;29;20236;-80
2023/08/11 13:00:43;;;;;;;5.53;1.50;;;23.50;99.90;;;;;;9976925;29;20220;-79
2023/08/11 13:06:04;;;;;;;4.32;1.98;;;23.50;99.90;;;;;;9960760;29;20211;-78
2023/08/11 13:11:26;;;;;;;5.88;1.83;;;23.10;99.90;;;;;;9992652;29;20693;-79
2023/08/11 13:16:47;;;;;;;4.32;1.48;;;22.90;99.90;;;;;;9992472;29;20482;-78
2023/08/11 13:22:08;;;;;;;2.15;1.30;;;23.00;99.90;;;;;;9951637;29;20240;-79
2023/08/11 13:27:29;;;;;;;4.00;1.42;;;23.70;99.90;;;;;;9968991;29;20315;-78
2023/08/11 13:32:51;;;;;;;2.78;1.50;;;23.50;99.90;;;;;;9983965;29;20280;-78
2023/08/11 13:38:12;;;;;;;1.80;1.10;;;23.30;99.90;;;;;;9977576;29;20326;-78
2023/08/11 13:43:37;;;;;;;3.90;1.50;;;23.20;99.90;;;;;;9968504;29;20204;-79
2023/08/11 13:48:58;;;;;;;2.63;1.40;;;23.60;99.90;;;;;;9964879;29;20209;-83
2023/08/11 13:54:19;;;;;;;2.95;1.00;;;23.90;99.90;;;;;;9982485;29;20222;-79
2023/08/11 13:59:41;;;;;;;8.27;5.07;;;24.30;99.90;;;;;;9965341;29;20201;-80
2023/08/11 14:05:02;;;;;;;5.20;1.42;;;24.50;99.90;;;;;;9964144;29;20211;-79
2023/08/11 14:10:24;;;;;;;1.40;1.23;;;24.60;99.90;;;;;;9946422;29;20247;-78
2023/08/11 14:15:45;;;;;;;3.28;1.23;;;24.50;99.90;;;;;;9974030;29;20234;-80
2023/08/11 14:21:06;;;;;;;5.97;1.38;;;24.60;99.90;;;;;;9982354;29;20209;-80
2023/08/11 14:26:27;;;;;;;2.78;1.63;;;24.20;99.90;;;;;;9981337;29;20219;-88
2023/08/11 14:31:48;;;;;;;18.60;2.10;;;24.20;99.90;;;;;;9981550;29;20232;-81
2023/08/11 14:37:09;;;;;;;4.68;1.58;;;24.20;99.90;;;;;;9978516;29;20245;-80
2023/08/11 14:42:32;;;;;;;16.30;2.00;;;24.20;99.90;;;;;;9970106;29;20220;-80
2023/08/11 14:47:53;;;;;;;5.95;1.52;;;23.90;99.90;;;;;;9980183;29;20206;-79
2023/08/11 14:53:14;;;;;;;3.72;1.20;;;23.70;99.90;;;;;;9969767;29;20390;-79
2023/08/11 14:58:35;;;;;;;4.82;1.40;;;23.70;99.90;;;;;;9959559;29;20220;-87
2023/08/11 15:03:57;;;;;;;11.93;1.65;;;23.70;99.90;;;;;;9923011;29;20408;-80
2023/08/11 15:09:18;;;;;;;5.63;1.30;;;23.50;99.90;;;;;;9956468;29;20297;-82
2023/08/11 15:14:39;;;;;;;3.05;1.30;;;23.20;99.90;;;;;;9959557;29;20199;-79
2023/08/11 15:20:01;;;;;;;4.10;1.40;;;23.00;99.90;;;;;;9998647;29;20211;-80
2023/08/11 15:25:22;;;;;;;5.32;1.67;;;22.80;99.90;;;;;;9991100;29;20224;-79
2023/08/11 15:30:43;;;;;;;4.53;1.30;;;22.70;99.90;;;;;;9957830;29;20239;-81
2023/08/11 15:36:04;;;;;;;2.60;1.10;;;22.50;99.90;;;;;;9970213;29;20239;-81
2023/08/11 15:41:26;;;;;;;1.88;0.98;;;22.40;99.90;;;;;;9957468;29;20215;-80
2023/08/11 15:46:47;;;;;;;2.67;1.60;;;22.50;99.90;;;;;;9945849;29;20229;-81
2023/08/11 15:52:08;;;;;;;4.03;1.40;;;22.60;99.90;;;;;;9970034;29;20557;-80
2023/08/11 15:57:29;;;;;;;3.50;1.20;;;22.70;99.90;;;;;;9970257;29;20213;-80
2023/08/11 16:02:51;;;;;;;2.72;1.95;;;22.70;99.90;;;;;;9945467;29;20215;-82
2023/08/11 16:08:12;;;;;;;3.63;1.63;;;22.70;99.90;;;;;;9982214;29;20196;-80
2023/08/11 16:13:33;;;;;;;2.60;1.58;;;22.60;99.90;;;;;;9972725;29;20247;-82
2023/08/11 16:18:54;;;;;;;4.28;1.30;;;22.50;99.90;;;;;;9977441;29;20197;-82
2023/08/11 16:24:15;;;;;;;3.70;1.92;;;22.40;99.90;;;;;;9969838;29;20212;-82
2023/08/11 16:29:40;;;;;;;3.88;1.95;;;22.40;99.90;;;;;;9969867;29;20204;-83
2023/08/11 16:35:02;;;;;;;3.22;1.88;;;22.20;99.90;;;;;;9967885;29;20441;-83
2023/08/11 16:40:23;;;;;;;3.88;1.63;;;22.10;99.90;;;;;;9980110;29;20439;-82
2023/08/11 16:45:48;;;;;;;2.65;1.30;;;22.00;99.90;;;;;;9923760;29;20223;-82
2023/08/11 16:51:10;;;;;;;2.03;1.45;;;;;;;;;;9931634;29;20240;-82
2023/08/11 16:56:31;;;;;;;1.65;1.33;;;21.90;99.90;;;;;;9959532;29;20213;-82
2023/08/11 17:01:53;;;;;;;1.98;1.15;;;21.80;99.90;;;;;;9956132;29;20220;-82
2023/08/11 17:07:14;;;;;;;2.90;1.33;;;21.80;99.90;;;;;;9968185;29;20215;-82
2023/08/11 17:12:35;;;;;;;3.03;1.48;;;21.70;99.90;;;;;;9955605;29;20640;-82
2023/08/11 17:17:57;;;;;;;1.63;1.40;;;21.70;99.90;;;;;;9974751;29;20216;-82
2023/08/11 17:23:18;;;;;;;2.20;1.50;;;21.60;99.90;;;;;;9955265;29;20415;-81
2023/08/11 17:28:40;;;;;;;2.60;1.52;;;21.50;99.90;;;;;;9955555;29;20495;-82
2023/08/11 17:34:01;;;;;;;2.45;1.25;;;21.50;99.90;;;;;;9953917;29;20263;-82
2023/08/11 17:39:22;;;;;;;2.38;1.60;;;21.40;99.90;;;;;;9967388;29;20244;-81
2023/08/11 17:44:44;;;;;;;4.20;1.88;;;21.30;99.90;;;;;;9959229;29;20235;-82
2023/08/11 17:50:06;;;;;;;1.80;1.40;;;21.20;99.90;;;;;;9953200;29;20519;-80
2023/08/11 17:55:27;;;;;;;4.85;2.28;;;21.10;99.90;;;;;;9953785;29;20203;-82
2023/08/11 18:00:48;;;;;;;2.35;1.95;;;21.00;99.90;;;;;;9966042;29;20207;-82
2023/08/11 18:06:10;;;;;;;4.00;2.78;;;21.00;99.90;;;;;;9967332;29;20205;-82
2023/08/11 18:11:34;;;;;;;5.53;2.85;;;20.90;99.90;;;;;;9953377;29;20454;-82
2023/08/11 18:16:55;;;;;;;7.25;4.57;;;20.70;99.90;;;;;;9980637;29;20215;-82
2023/08/11 18:22:17;;;;;;;7.88;4.82;;;20.60;99.90;;;;;;9953308;29;20211;-82
2023/08/11 18:27:39;;;;;;;7.30;4.70;;;20.30;99.90;;;;;;9966753;29;20276;-82
2023/08/11 18:33:00;;;;;;;6.47;4.15;;;20.20;99.90;;;;;;9964732;29;20232;-82
2023/08/11 18:38:24;;;;;;;10.07;4.80;;;20.00;99.90;;;;;;9965497;29;20475;-82
2023/08/11 18:43:46;;;;;;;7.68;5.20;;;19.80;99.90;;;;;;9951903;29;20388;-82
2023/08/11 18:49:07;;;;;;;8.77;5.07;;;19.60;99.90;;;;;;9951622;29;20212;-82
2023/08/11 18:54:29;;;;;;;8.32;4.97;;;19.60;99.90;;;;;;9952333;29;20439;-82
2023/08/11 18:59:50;;;;;;;7.45;5.45;;;19.50;99.90;;;;;;9950503;29;20390;-82
2023/08/11 19:05:11;;;;;;;12.45;6.93;;;19.30;99.90;;;;;;9964756;29;20392;-82
2023/08/11 19:10:33;;;;;;;13.18;7.63;;;;;;;;;;9951981;29;20240;-82
2023/08/11 19:15:55;;;;;;;13.13;9.77;;;18.80;1.00;;;;;;9969915;29;20234;-82
2023/08/11 19:21:16;;;;;;;13.02;8.98;;;18.80;1.00;;;;;;9973655;29;20503;-81
2023/08/11 19:26:37;;;;;;;10.65;5.75;;;18.60;1.00;;;;;;9951802;29;20393;-82
2023/08/11 19:31:58;;;;;;;8.70;5.65;;;18.40;1.00;;;;;;9950475;29;20238;-82
2023/08/11 19:37:19;;;;;;;9.30;5.50;;;18.30;1.00;;;;;;9939021;29;20322;-82
2023/08/11 19:42:41;;;;;;;14.45;6.15;;;18.20;1.00;;;;;;9957634;29;20212;-82
2023/08/11 19:48:03;;;;;;;13.32;6.88;;;18.10;1.00;;;;;;9935522;29;20247;-82
2023/08/11 19:53:25;;;;;;;12.05;5.60;;;18.10;99.90;;;;;;9961378;29;20268;-82
2023/08/11 19:58:46;;;;;;;10.73;5.95;;;18.00;99.90;;;;;;9964807;29;20193;-81
2023/08/11 20:04:07;;;;;;;9.05;5.65;;;17.90;99.90;;;;;;9950185;29;20526;-81
2023/08/11 20:09:28;;;;;;;9.45;5.82;;;17.90;1.00;;;;;;9965385;29;20430;-81
2023/08/11 20:14:49;;;;;;;8.20;6.15;;;17.70;1.00;;;;;;9968378;29;20510;-81
2023/08/11 20:20:11;;;;;;;16.63;7.22;;;17.70;1.00;;;;;;9982691;29;20216;-81
2023/08/11 20:25:32;;;;;;;29.02;11.32;;;17.60;1.00;;;;;;9970123;29;20234;-81
2023/08/11 20:30:59;;;;;;;30.08;12.07;;;17.40;1.00;;;;;;9982536;29;20228;-81
2023/08/11 20:36:21;;;;;;;19.20;9.45;;;17.30;25.60;;;;;;9968116;29;20240;-81
2023/08/11 20:41:43;;;;;;;21.02;10.13;;;17.20;99.90;;;;;;9943849;29;20223;-81
2023/08/11 20:47:04;;;;;;;19.75;9.75;;;17.20;99.90;;;;;;9955759;29;20216;-81
2023/08/11 20:52:25;;;;;;;14.60;8.38;;;17.10;99.90;;;;;;9956346;29;20575;-81
2023/08/11 20:57:48;;;;;;;15.25;8.73;;;17.10;99.90;;;;;;9968602;29;20525;-81
2023/08/11 21:03:09;;;;;;;18.77;9.77;;;16.90;99.90;;;;;;9954629;29;20220;-81
2023/08/11 21:08:32;;;;;;;18.70;9.88;;;16.80;1.00;;;;;;9981578;29;20222;-81
2023/08/11 21:13:56;;;;;;;19.58;10.80;;;16.70;1.00;;;;;;9959294;29;20231;-81
2023/08/11 21:19:18;;;;;;;18.48;10.10;;;14.40;1.00;;;;;;9970767;29;20258;-81
2023/08/11 21:24:39;;;;;;;20.70;10.45;;;16.60;99.90;;;;;;9968324;29;20222;-81
2023/08/11 21:30:00;;;;;;;20.25;10.75;;;16.50;99.90;;;;;;9968201;29;20196;-81
2023/08/11 21:35:21;;;;;;;17.77;11.95;;;16.40;99.90;;;;;;9954024;29;20675;-81
2023/08/11 21:40:43;;;;;;;30.88;17.73;;;16.30;99.90;;;;;;9966805;29;20211;-81
2023/08/11 21:46:04;;;;;;;41.13;18.77;;;16.40;1.00;;;;;;9942439;29;20272;-81
2023/08/11 21:51:25;;;;;;;27.15;14.18;;;16.40;1.00;;;;;;9954043;29;20239;-81
2023/08/11 21:56:47;;;;;;;23.75;12.73;;;16.30;88.10;;;;;;9954305;29;20285;-81
2023/08/11 22:02:08;;;;;;;14.57;6.65;;;16.40;1.00;;;;;;9973416;29;20215;-81
2023/08/11 22:07:30;;;;;;;11.00;6.35;;;16.30;1.00;;;;;;9968500;29;20208;-81
2023/08/11 22:12:51;;;;;;;10.95;6.03;;;16.20;1.00;;;;;;9953802;29;20556;-81
2023/08/11 22:18:12;;;;;;;7.05;4.50;;;16.20;1.00;;;;;;9991326;29;20226;-80
2023/08/11 22:23:34;;;;;;;8.43;5.20;;;16.10;1.00;;;;;;9976530;29;20274;-81
2023/08/11 22:28:55;;;;;;;8.90;4.55;;;16.10;99.90;;;;;;9976595;29;20278;-81
2023/08/11 22:34:16;;;;;;;7.55;4.45;;;16.10;99.90;;;;;;9971976;29;20250;-81
2023/08/11 22:39:38;;;;;;;9.30;5.30;;;;;;;;;;9972922;29;20206;-81
2023/08/11 22:44:59;;;;;;;13.15;5.13;;;15.80;1.00;;;;;;9946110;29;20219;-81
2023/08/11 22:50:21;;;;;;;10.57;5.68;;;15.60;69.80;;;;;;9971509;29;20215;-81
2023/08/11 22:55:43;;;;;;;9.20;5.82;;;15.60;1.00;;;;;;9966754;29;20249;-81
2023/08/11 23:01:04;;;;;;;12.68;5.63;;;15.50;99.90;;;;;;9952529;29;20652;-81
2023/08/11 23:06:25;;;;;;;8.80;4.88;;;15.50;99.90;;;;;;9963645;29;20239;-81
2023/08/11 23:11:46;;;;;;;7.50;4.47;;;15.40;22.80;;;;;;9952096;29;20241;-81
2023/08/11 23:17:08;;;;;;;8.50;5.07;;;15.30;1.00;;;;;;9980587;29;20545;-81
2023/08/11 23:22:30;;;;;;;7.40;4.25;;;15.40;1.00;;;;;;9984760;29;20210;-81
2023/08/11 23:27:51;;;;;;;6.43;3.75;;;15.30;99.90;;;;;;9951921;29;20213;-81
2023/08/11 23:33:12;;;;;;;6.47;4.45;;;15.20;99.90;;;;;;9965287;29;20504;-81
2023/08/11 23:38:35;;;;;;;6.93;4.40;;;15.20;1.00;;;;;;9950318;29;20288;-81
2023/08/11 23:43:56;;;;;;;8.25;4.07;;;15.20;1.00;;;;;;9951200;29;20211;-81
2023/08/11 23:49:17;;;;;;;10.05;5.05;;;15.10;1.00;;;;;;9945845;29;20205;-81
2023/08/11 23:54:39;;;;;;;9.57;5.15;;;15.10;1.00;;;;;;9955294;29;20246;-81
